Sidney, Maine
Current Conditions -  °F | °C
As of 12:53 PM on Monday 24 Nov 2014 (Local Time) from KAUG Reporting Station
Light Rain Light Rain  
Wind Chill: 57°   Ceiling: 800
Heat Index: 57°   Visibility: 4mi
Dew Point: 56°   Wind: 14mph
Humidity: 96%   Direction: 180°S
Pressure: 29.62"   Gusts: 31mph
Location:  44.3261°N, 69.698°W
Report Text: KAUG 241753Z AUTO 18012G27KT 4SM -RA BR OVC008 14/13 A2962 RMK AO2 PK WND 18030/1710 SLP032 P0004 60060 T01390133 10139 20083 56027
Loading
Personal Weather Stations






























Interactive Weather Map New forecast layout! Learn more

10-Day Weather Forecast

Advertisements
Track Severe Weather on mobile